createdAt,value
2019-03-06T00:02:17.016Z,101137.25
2019-03-06T00:04:46.939Z,101144.32
2019-03-06T00:07:16.903Z,101151.33
2019-03-06T00:09:46.717Z,101147.17
2019-03-06T00:12:16.797Z,101143.39
2019-03-06T00:14:46.541Z,101153.09
2019-03-06T00:17:16.540Z,101151.94
2019-03-06T00:19:46.371Z,101159.72
2019-03-06T00:22:16.171Z,101154.14
2019-03-06T00:24:46.147Z,101160.01
2019-03-06T00:27:15.798Z,101152.01
2019-03-06T00:29:45.511Z,101151.33
2019-03-06T00:32:15.168Z,101147.81
2019-03-06T00:34:45.048Z,101149.95
2019-03-06T00:37:15.061Z,101149.81
2019-03-06T00:39:52.788Z,101146.52
2019-03-06T00:42:22.478Z,101144.66
2019-03-06T00:44:52.564Z,101143.52
2019-03-06T00:47:22.572Z,101140.39
2019-03-06T00:49:52.553Z,101142.64
2019-03-06T00:52:22.369Z,101150.84
2019-03-06T00:54:52.209Z,101153.26
2019-03-06T00:57:21.971Z,101157.92
2019-03-06T00:59:51.633Z,101157.98
2019-03-06T01:02:21.524Z,101160.39
2019-03-06T01:04:51.441Z,101163.72
2019-03-06T01:07:21.274Z,101150.71
2019-03-06T01:09:51.170Z,101149.72
2019-03-06T01:12:21.196Z,101154.27
2019-03-06T01:14:51.106Z,101157.16
2019-03-06T01:17:20.904Z,101157.91
2019-03-06T01:19:50.792Z,101145.17
2019-03-06T01:22:21.221Z,101144.93
2019-03-06T01:24:50.959Z,101141.25
2019-03-06T01:27:20.688Z,101151.81
2019-03-06T01:29:50.691Z,101151.95
2019-03-06T01:32:20.903Z,101152.84
2019-03-06T01:35:04.251Z,101152.94
2019-03-06T01:37:56.004Z,101148.75
2019-03-06T01:40:44.036Z,101148.61
2019-03-06T01:43:32.784Z,101139.03
2019-03-06T01:46:02.828Z,101138.73
2019-03-06T01:48:32.632Z,101143.82
2019-03-06T01:51:03.453Z,101139.06
2019-03-06T01:53:33.499Z,101137.08
2019-03-06T01:56:03.376Z,101124.91
2019-03-06T01:58:33.077Z,101120.58
2019-03-06T02:01:02.969Z,101114.34
2019-03-06T02:03:32.661Z,101116.02
2019-03-06T02:06:02.838Z,101114.55
2019-03-06T02:08:32.861Z,101118.51
2019-03-06T02:11:03.167Z,101113.78
2019-03-06T02:13:32.938Z,101123.50
2019-03-06T02:16:02.839Z,101122.00
2019-03-06T02:18:32.754Z,101123.05
2019-03-06T02:21:02.598Z,101123.72
2019-03-06T02:23:32.492Z,101130.19
2019-03-06T02:26:03.517Z,101133.41
2019-03-06T02:28:33.459Z,101152.88
2019-03-06T02:31:03.317Z,101149.33
2019-03-06T02:33:33.194Z,101159.83
2019-03-06T02:36:03.085Z,101169.50
2019-03-06T02:38:33.161Z,101172.83
2019-03-06T02:41:02.923Z,101167.30
2019-03-06T02:43:32.734Z,101165.85
2019-03-06T02:46:02.491Z,101163.29
2019-03-06T02:48:32.252Z,101160.73
2019-03-06T02:51:02.193Z,101169.13
2019-03-06T02:53:33.163Z,101157.66
2019-03-06T02:56:03.182Z,101157.06
2019-03-06T02:58:58.101Z,101166.94
2019-03-06T03:01:45.399Z,101166.24
2019-03-06T03:04:37.744Z,101150.34
2019-03-06T03:07:16.638Z,101148.15
2019-03-06T03:09:46.572Z,101142.60
2019-03-06T03:12:16.395Z,101139.56
2019-03-06T03:14:46.328Z,101156.17
2019-03-06T03:17:16.182Z,101151.73
2019-03-06T03:19:45.929Z,101155.92
2019-03-06T03:22:15.759Z,101143.72
2019-03-06T03:24:45.722Z,101138.55
2019-03-06T03:27:16.047Z,101147.00
2019-03-06T03:29:45.802Z,101139.20
2019-03-06T03:32:15.737Z,101127.02
2019-03-06T03:34:45.718Z,101113.06
2019-03-06T03:37:15.473Z,101122.96
2019-03-06T03:39:45.166Z,101132.32
2019-03-06T03:42:15.132Z,101133.56
2019-03-06T03:44:45.300Z,101137.47
2019-03-06T03:47:15.138Z,101142.59
2019-03-06T03:49:45.212Z,101145.87
2019-03-06T03:52:14.969Z,101152.28
2019-03-06T03:54:44.765Z,101154.47
2019-03-06T03:57:14.959Z,101145.17
2019-03-06T03:59:44.796Z,101145.92
2019-03-06T04:02:14.670Z,101131.42
2019-03-06T04:04:44.434Z,101123.50
2019-03-06T04:07:14.244Z,101122.06
2019-03-06T04:09:44.121Z,101133.17
2019-03-06T04:12:13.999Z,101145.66
2019-03-06T04:14:43.704Z,101144.66
2019-03-06T04:17:13.781Z,101147.04
2019-03-06T04:19:43.660Z,101143.34
2019-03-06T04:22:13.661Z,101148.97
2019-03-06T04:24:44.391Z,101148.39
2019-03-06T04:27:14.593Z,101172.98
2019-03-06T04:29:44.328Z,101178.22
2019-03-06T04:32:14.123Z,101183.02
2019-03-06T04:34:44.108Z,101190.28
2019-03-06T04:37:13.861Z,101200.52
2019-03-06T04:39:43.799Z,101196.13
2019-03-06T04:42:13.780Z,101199.77
2019-03-06T04:44:43.609Z,101205.45
2019-03-06T04:47:13.422Z,101198.59
2019-03-06T04:49:52.269Z,101192.61
2019-03-06T04:52:14.745Z,101189.04
2019-03-06T04:54:44.529Z,101186.31
2019-03-06T04:57:14.472Z,101179.40
2019-03-06T04:59:44.256Z,101189.74
2019-03-06T05:02:14.082Z,101182.88
2019-03-06T05:04:43.910Z,101179.34
2019-03-06T05:07:13.738Z,101189.10
2019-03-06T05:09:43.698Z,101190.98
2019-03-06T05:12:13.417Z,101189.69
2019-03-06T05:14:43.278Z,101192.05
2019-03-06T05:17:31.938Z,101191.85
2019-03-06T05:20:01.719Z,101195.45
2019-03-06T05:22:31.571Z,101190.53
2019-03-06T05:25:01.454Z,101190.27
2019-03-06T05:27:32.411Z,101183.00
2019-03-06T05:30:02.387Z,101181.81
2019-03-06T05:32:36.878Z,101183.59
2019-03-06T05:35:16.063Z,101193.11
2019-03-06T05:37:58.732Z,101189.71
2019-03-06T05:40:28.472Z,101200.36
2019-03-06T05:42:58.304Z,101202.86
2019-03-06T05:45:28.244Z,101199.77
2019-03-06T05:47:58.016Z,101203.35
2019-03-06T05:50:28.057Z,101212.00
2019-03-06T05:52:57.951Z,101205.23
2019-03-06T05:55:27.786Z,101216.97
2019-03-06T05:57:57.737Z,101218.27
2019-03-06T06:00:28.114Z,101211.43
2019-03-06T06:02:57.925Z,101213.69
2019-03-06T06:05:27.838Z,101215.28
2019-03-06T06:07:57.517Z,101220.16
2019-03-06T06:10:27.183Z,101224.88
2019-03-06T06:12:59.353Z,101216.89
2019-03-06T06:15:29.217Z,101219.87
2019-03-06T06:17:58.997Z,101229.78
2019-03-06T06:20:28.702Z,101226.73
2019-03-06T06:23:36.049Z,101225.91
2019-03-06T06:26:05.816Z,101233.81
2019-03-06T06:28:35.629Z,101244.86
2019-03-06T06:31:06.765Z,101247.04
2019-03-06T06:33:36.575Z,101266.81
2019-03-06T06:36:06.479Z,101273.08
2019-03-06T06:38:37.526Z,101283.14
2019-03-06T06:41:07.653Z,101283.69
2019-03-06T06:43:37.555Z,101286.77
2019-03-06T06:46:08.540Z,101284.52
2019-03-06T06:48:38.423Z,101291.30
2019-03-06T06:51:13.323Z,101300.30
2019-03-06T06:54:00.160Z,101297.45
2019-03-06T06:56:41.400Z,101296.19
2019-03-06T06:59:24.998Z,101296.60
2019-03-06T07:02:47.028Z,101303.41
2019-03-06T07:05:34.348Z,101311.83
2019-03-06T07:08:23.419Z,101310.59
2019-03-06T07:11:15.354Z,101304.58
2019-03-06T07:14:04.089Z,101303.66
2019-03-06T07:16:58.945Z,101303.58
2019-03-06T07:19:50.951Z,101302.88
2019-03-06T07:22:39.688Z,101309.34
2019-03-06T07:25:23.780Z,101302.46
2019-03-06T07:28:18.661Z,101291.21
2019-03-06T07:31:13.437Z,101302.41
2019-03-06T07:33:49.240Z,101294.84
2019-03-06T07:36:36.755Z,101291.80
2019-03-06T07:39:27.364Z,101288.44
2019-03-06T07:42:31.217Z,101289.45
2019-03-06T07:46:00.593Z,101279.94
2019-03-06T07:49:00.900Z,101281.28
2019-03-06T07:51:39.929Z,101283.54
2019-03-06T07:54:26.536Z,101291.29
2019-03-06T07:57:00.206Z,101285.12
2019-03-06T07:59:29.968Z,101274.53
2019-03-06T08:02:03.352Z,101272.94
2019-03-06T08:04:33.231Z,101271.73
2019-03-06T08:07:16.308Z,101275.97
2019-03-06T08:09:46.563Z,101273.78
2019-03-06T08:12:34.840Z,101280.48
2019-03-06T08:15:22.773Z,101288.80
2019-03-06T08:18:00.734Z,101293.12
2019-03-06T08:20:46.163Z,101295.52
2019-03-06T08:23:33.825Z,101292.46
2019-03-06T08:26:03.912Z,101289.94
2019-03-06T08:28:33.656Z,101283.98
2019-03-06T08:31:25.456Z,101290.52
2019-03-06T08:33:55.388Z,101280.63
2019-03-06T08:36:25.205Z,101290.61
2019-03-06T08:38:55.072Z,101289.95
2019-03-06T08:41:24.846Z,101291.28
2019-03-06T08:43:54.673Z,101288.80
2019-03-06T08:46:42.327Z,101284.02
2019-03-06T08:49:28.155Z,101271.46
2019-03-06T08:52:07.290Z,101280.77
2019-03-06T08:55:02.117Z,101263.37
2019-03-06T08:58:03.231Z,101266.80
2019-03-06T09:00:50.726Z,101265.98
2019-03-06T09:03:39.395Z,101277.22
2019-03-06T09:06:24.858Z,101268.99
2019-03-06T09:09:13.909Z,101276.70
2019-03-06T09:12:06.039Z,101278.94
2019-03-06T09:14:58.394Z,101287.92
2019-03-06T09:17:46.217Z,101279.75
2019-03-06T09:20:39.009Z,101284.16
2019-03-06T09:23:29.099Z,101280.98
2019-03-06T09:26:13.558Z,101296.12
2019-03-06T09:29:08.133Z,101292.20
2019-03-06T09:32:04.346Z,101296.69
2019-03-06T09:34:59.077Z,101295.00
2019-03-06T09:37:53.844Z,101292.52
2019-03-06T09:40:33.723Z,101290.48
2019-03-06T09:43:25.525Z,101273.81
2019-03-06T09:46:09.491Z,101289.64
2019-03-06T09:48:51.052Z,101282.45
2019-03-06T09:51:33.377Z,101286.28
2019-03-06T09:54:24.895Z,101286.40
2019-03-06T09:57:03.868Z,101279.74
2019-03-06T09:59:42.861Z,101277.43
2019-03-06T10:02:32.254Z,101276.70
2019-03-06T10:05:24.168Z,101277.83
2019-03-06T10:08:15.656Z,101275.72
2019-03-06T10:11:07.173Z,101272.33
2019-03-06T10:14:08.104Z,101281.88
2019-03-06T10:16:49.241Z,101278.03
2019-03-06T10:19:29.623Z,101273.17
2019-03-06T10:21:59.786Z,101271.53
2019-03-06T10:24:29.571Z,101273.45
2019-03-06T10:26:59.471Z,101261.42
2019-03-06T10:29:29.358Z,101262.05
2019-03-06T10:31:59.334Z,101263.28
2019-03-06T10:34:29.516Z,101261.72
2019-03-06T10:36:59.456Z,101251.95
2019-03-06T10:39:29.304Z,101251.86
2019-03-06T10:41:59.171Z,101250.30
2019-03-06T10:44:30.032Z,101250.89
2019-03-06T10:46:59.909Z,101233.21
2019-03-06T10:49:29.825Z,101234.78
2019-03-06T10:51:59.800Z,101233.58
2019-03-06T10:54:29.635Z,101229.66
2019-03-06T10:56:59.560Z,101224.90
2019-03-06T10:59:29.446Z,101228.67
2019-03-06T11:01:59.220Z,101228.95
2019-03-06T11:04:54.085Z,101222.70
2019-03-06T11:07:24.251Z,101217.17
2019-03-06T11:09:55.418Z,101220.49
2019-03-06T11:12:25.428Z,101219.61
2019-03-06T11:14:55.217Z,101210.50
2019-03-06T11:17:25.157Z,101211.71
2019-03-06T11:19:55.803Z,101209.37
2019-03-06T11:22:25.808Z,101195.41
2019-03-06T11:24:56.163Z,101197.30
2019-03-06T11:27:26.053Z,101196.25
2019-03-06T11:29:55.839Z,101194.50
2019-03-06T11:32:25.640Z,101189.05
2019-03-06T11:34:55.554Z,101186.46
2019-03-06T11:37:25.494Z,101183.27
2019-03-06T11:39:55.203Z,101178.95
2019-03-06T11:42:25.514Z,101176.05
2019-03-06T11:44:55.239Z,101177.02
2019-03-06T11:47:25.575Z,101168.11
2019-03-06T11:49:55.332Z,101173.51
2019-03-06T11:52:25.232Z,101155.22
2019-03-06T11:54:55.029Z,101154.30
2019-03-06T11:57:25.081Z,101148.69
2019-03-06T11:59:54.856Z,101151.70
2019-03-06T12:02:24.933Z,101149.23
2019-03-06T12:04:54.802Z,101160.30
2019-03-06T12:07:24.764Z,101163.01
2019-03-06T12:09:54.863Z,101156.01
2019-03-06T12:12:24.859Z,101146.92
2019-03-06T12:14:56.118Z,101151.83
2019-03-06T12:17:26.123Z,101153.47
2019-03-06T12:19:56.116Z,101151.59
2019-03-06T12:22:26.110Z,101145.58
2019-03-06T12:24:56.626Z,101135.09
2019-03-06T12:27:26.449Z,101133.78
2019-03-06T12:29:56.381Z,101118.05
2019-03-06T12:32:27.243Z,101138.41
2019-03-06T12:34:57.519Z,101137.40
2019-03-06T12:37:28.472Z,101134.05
2019-03-06T12:39:58.224Z,101135.98
2019-03-06T12:42:28.240Z,101138.44
2019-03-06T12:44:58.114Z,101145.14
2019-03-06T12:47:28.186Z,101141.68
2019-03-06T12:50:05.461Z,101150.13
2019-03-06T12:52:30.925Z,101140.52
2019-03-06T12:55:01.024Z,101122.23
2019-03-06T12:57:30.929Z,101126.16
2019-03-06T13:00:00.888Z,101134.53
2019-03-06T13:02:30.658Z,101129.80
2019-03-06T13:05:00.375Z,101141.80
2019-03-06T13:07:30.382Z,101133.34
2019-03-06T13:10:00.476Z,101145.50
2019-03-06T13:12:30.421Z,101144.30
2019-03-06T13:15:01.473Z,101150.64
2019-03-06T13:17:31.298Z,101142.84
2019-03-06T13:20:01.195Z,101153.30
2019-03-06T13:22:31.267Z,101136.26
2019-03-06T13:25:01.024Z,101143.13
2019-03-06T13:27:30.950Z,101151.61
2019-03-06T13:30:00.910Z,101145.87
2019-03-06T13:32:42.535Z,101148.62
2019-03-06T13:35:13.840Z,101150.42
2019-03-06T13:37:43.630Z,101145.44
2019-03-06T13:40:18.609Z,101143.38
2019-03-06T13:42:46.549Z,101133.67
2019-03-06T13:45:16.558Z,101128.55
2019-03-06T13:47:46.373Z,101144.62
2019-03-06T13:50:16.537Z,101134.89
2019-03-06T13:53:27.409Z,101149.67
2019-03-06T13:56:33.351Z,101142.75
2019-03-06T13:59:42.825Z,101141.94
2019-03-06T14:06:05.305Z,101155.82
2019-03-06T14:09:30.572Z,101146.92
2019-03-06T14:12:20.602Z,101173.54
2019-03-06T14:15:20.161Z,101157.71
2019-03-06T14:19:00.669Z,101180.27
2019-03-06T14:22:11.620Z,101177.41
2019-03-06T14:25:22.200Z,101206.05
2019-03-06T14:28:39.636Z,101214.24
2019-03-06T14:31:33.270Z,101258.09
2019-03-06T14:34:26.913Z,101295.16
2019-03-06T14:37:15.713Z,101251.28
2019-03-06T14:50:30.910Z,101337.77
2019-03-06T14:53:17.519Z,101351.27
2019-03-06T14:56:58.878Z,101374.17
2019-03-06T15:03:53.010Z,101348.20
2019-03-06T15:06:39.936Z,101365.52
2019-03-06T15:09:34.620Z,101370.08
2019-03-06T15:12:24.227Z,101351.92
2019-03-06T15:15:02.460Z,101364.44
2019-03-06T15:18:10.138Z,101396.11
2019-03-06T15:21:02.868Z,101398.80
2019-03-06T15:24:05.944Z,101385.32
2019-03-06T15:27:30.520Z,101349.13
2019-03-06T15:30:21.208Z,101349.45
2019-03-06T15:33:12.620Z,101354.73
2019-03-06T15:40:18.732Z,101394.61
2019-03-06T15:42:59.063Z,101409.80
2019-03-06T15:45:44.002Z,101384.91
2019-03-06T15:48:55.331Z,101391.07
2019-03-06T15:51:43.137Z,101379.12
2019-03-06T15:58:06.687Z,101380.08
2019-03-06T16:01:29.201Z,101387.54
2019-03-06T16:04:34.730Z,101383.90
2019-03-06T16:07:28.047Z,101403.09
2019-03-06T16:14:00.017Z,101407.09
2019-03-06T16:20:57.695Z,101419.09
2019-03-06T16:24:19.908Z,101404.50
2019-03-06T16:31:05.044Z,101401.67
2019-03-06T16:33:54.876Z,101400.55
2019-03-06T16:37:06.671Z,101416.00
2019-03-06T16:40:17.513Z,101419.25
2019-03-06T16:47:22.763Z,101429.61
2019-03-06T16:50:02.373Z,101436.98
2019-03-06T16:52:57.421Z,101451.88
2019-03-06T16:56:22.446Z,101451.78
2019-03-06T17:02:47.460Z,101459.34
2019-03-06T17:05:40.865Z,101465.56
2019-03-06T17:08:48.338Z,101468.87
2019-03-06T17:11:33.521Z,101478.74
2019-03-06T17:14:30.450Z,101484.30
2019-03-06T17:18:03.144Z,101482.36
2019-03-06T17:20:54.639Z,101499.85
2019-03-06T17:23:38.678Z,101489.91
2019-03-06T17:26:23.089Z,101502.70
2019-03-06T17:29:38.035Z,101504.02
2019-03-06T17:32:45.965Z,101524.17
2019-03-06T17:35:47.384Z,101506.77
2019-03-06T17:38:47.267Z,101516.72
2019-03-06T17:41:21.835Z,101518.27
2019-03-06T17:43:53.130Z,101531.08
2019-03-06T17:46:22.919Z,101549.03
2019-03-06T17:48:52.644Z,101528.20
2019-03-06T17:51:22.404Z,101537.98
2019-03-06T17:53:52.155Z,101546.02
2019-03-06T17:56:21.969Z,101553.90
2019-03-06T17:58:52.942Z,101556.80
2019-03-06T18:01:22.796Z,101552.96
2019-03-06T18:04:01.772Z,101556.86
2019-03-06T18:06:31.578Z,101554.75
2019-03-06T18:09:01.377Z,101564.48
2019-03-06T18:11:31.160Z,101564.48
2019-03-06T18:14:01.111Z,101565.24
2019-03-06T18:16:30.852Z,101574.80
2019-03-06T18:19:00.658Z,101581.81
2019-03-06T18:21:30.516Z,101594.17
2019-03-06T18:24:00.366Z,101595.80
2019-03-06T18:26:30.205Z,101612.42
2019-03-06T18:29:00.158Z,101624.92
2019-03-06T18:31:29.929Z,101634.41
2019-03-06T18:33:59.947Z,101647.94
2019-03-06T18:36:29.678Z,101655.33
2019-03-06T18:38:59.369Z,101662.70
2019-03-06T18:41:29.143Z,101665.16
2019-03-06T18:43:58.987Z,101659.52
2019-03-06T18:46:29.057Z,101653.47
2019-03-06T18:48:58.867Z,101670.14
2019-03-06T18:51:28.749Z,101667.05
2019-03-06T18:53:58.467Z,101679.22
2019-03-06T18:56:28.216Z,101666.08
2019-03-06T18:58:58.972Z,101667.09
2019-03-06T19:01:29.017Z,101669.12
2019-03-06T19:04:00.104Z,101671.04
2019-03-06T19:06:31.354Z,101676.21
2019-03-06T19:09:01.126Z,101683.75
2019-03-06T19:11:31.207Z,101688.77
2019-03-06T19:14:01.389Z,101676.59
2019-03-06T19:16:31.620Z,101684.78
2019-03-06T19:19:01.686Z,101690.80
2019-03-06T19:21:31.562Z,101696.20
2019-03-06T19:24:01.242Z,101699.70
2019-03-06T19:26:31.480Z,101700.09
2019-03-06T19:29:01.655Z,101701.09
2019-03-06T19:31:31.512Z,101705.14
2019-03-06T19:34:01.336Z,101710.48
2019-03-06T19:36:31.179Z,101704.02
2019-03-06T19:39:01.071Z,101710.59
2019-03-06T19:41:31.066Z,101716.59
2019-03-06T19:44:02.241Z,101721.55
2019-03-06T19:46:32.026Z,101729.44
2019-03-06T19:49:01.951Z,101727.53
2019-03-06T19:51:31.932Z,101731.40
2019-03-06T19:54:01.797Z,101735.66
2019-03-06T19:56:31.846Z,101742.43
2019-03-06T19:59:01.532Z,101743.46
2019-03-06T20:01:32.565Z,101758.92
2019-03-06T20:04:02.685Z,101750.17
2019-03-06T20:06:32.479Z,101762.24
2019-03-06T20:09:02.545Z,101743.69
2019-03-06T20:11:32.328Z,101767.87
2019-03-06T20:14:02.058Z,101753.42
2019-03-06T20:16:31.838Z,101766.72
2019-03-06T20:19:02.811Z,101774.94
2019-03-06T20:21:32.642Z,101783.16
2019-03-06T20:24:02.426Z,101790.58
2019-03-06T20:26:32.295Z,101793.23
2019-03-06T20:29:02.615Z,101798.95
2019-03-06T20:31:32.482Z,101809.86
2019-03-06T20:34:02.306Z,101813.21
2019-03-06T20:36:32.046Z,101812.03
2019-03-06T20:39:01.951Z,101818.41
2019-03-06T20:41:31.867Z,101824.23
2019-03-06T20:44:01.731Z,101822.98
2019-03-06T20:46:31.475Z,101830.88
2019-03-06T20:49:01.199Z,101834.20
2019-03-06T20:51:31.165Z,101832.73
2019-03-06T20:54:01.011Z,101832.41
2019-03-06T20:56:30.752Z,101837.02
2019-03-06T20:59:00.618Z,101828.06
2019-03-06T21:01:30.783Z,101831.28
2019-03-06T21:04:00.688Z,101833.06
2019-03-06T21:06:34.613Z,101846.74
2019-03-06T21:09:04.646Z,101850.98
2019-03-06T21:11:36.406Z,101851.14
2019-03-06T21:14:06.828Z,101856.11
2019-03-06T21:16:36.720Z,101853.09
2019-03-06T21:19:06.592Z,101848.64
2019-03-06T21:21:36.467Z,101861.53
2019-03-06T21:24:06.176Z,101859.90
2019-03-06T21:26:36.038Z,101866.24
2019-03-06T21:29:05.914Z,101865.16
2019-03-06T21:31:35.937Z,101869.33
2019-03-06T21:34:05.894Z,101878.23
2019-03-06T21:36:35.538Z,101883.08
2019-03-06T21:39:08.505Z,101887.86
2019-03-06T21:41:38.807Z,101880.94
2019-03-06T21:44:08.573Z,101887.02
2019-03-06T21:46:39.204Z,101883.70
2019-03-06T21:49:10.687Z,101889.23
2019-03-06T21:51:40.505Z,101886.56
2019-03-06T21:54:10.531Z,101868.91
2019-03-06T21:56:40.554Z,101869.88
2019-03-06T21:59:10.434Z,101868.41
2019-03-06T22:01:40.466Z,101865.23
2019-03-06T22:04:11.644Z,101872.67
2019-03-06T22:06:42.621Z,101870.97
2019-03-06T22:09:14.289Z,101870.86
2019-03-06T22:11:44.048Z,101886.78
2019-03-06T22:14:13.782Z,101901.00
2019-03-06T22:16:43.521Z,101903.96
2019-03-06T22:19:13.361Z,101903.89
2019-03-06T22:21:43.342Z,101905.61
2019-03-06T22:24:13.282Z,101904.62
2019-03-06T22:26:43.110Z,101902.80
2019-03-06T22:29:12.973Z,101902.03
2019-03-06T22:31:42.719Z,101894.52
2019-03-06T22:34:12.646Z,101881.66
2019-03-06T22:36:42.395Z,101889.57
2019-03-06T22:39:12.976Z,101891.79
2019-03-06T22:41:42.813Z,101889.43
2019-03-06T22:44:12.750Z,101894.47
2019-03-06T22:46:42.614Z,101889.37
2019-03-06T22:49:12.452Z,101875.45
2019-03-06T22:51:42.491Z,101863.64
2019-03-06T22:54:13.562Z,101860.30
2019-03-06T22:56:43.528Z,101872.19
2019-03-06T22:59:13.550Z,101883.14
2019-03-06T23:01:44.560Z,101882.67
2019-03-06T23:04:14.394Z,101886.48
2019-03-06T23:06:44.245Z,101885.98
2019-03-06T23:09:14.070Z,101884.22
2019-03-06T23:11:44.342Z,101869.55
2019-03-06T23:14:14.059Z,101880.61
2019-03-06T23:16:44.037Z,101885.39
2019-03-06T23:19:14.013Z,101888.09
2019-03-06T23:21:43.708Z,101896.78
2019-03-06T23:24:13.661Z,101909.69
2019-03-06T23:26:43.442Z,101919.58
2019-03-06T23:29:13.204Z,101922.03
2019-03-06T23:31:43.373Z,101936.70
2019-03-06T23:34:13.184Z,101945.70
2019-03-06T23:36:42.918Z,101955.50
2019-03-06T23:39:15.834Z,101961.02
2019-03-06T23:41:45.811Z,101961.11
2019-03-06T23:44:15.820Z,101972.70
2019-03-06T23:46:45.781Z,101974.87
2019-03-06T23:49:15.565Z,101975.48
2019-03-06T23:52:02.660Z,101975.09
2019-03-06T23:54:32.588Z,101966.23
2019-03-06T23:57:02.215Z,101966.33
2019-03-06T23:59:32.071Z,101964.25
